Senior — CNA4920 — position and weather

sailwx.info

Track history (hours):
 
Tides and Currents Weather Stations Pressure Air Temp Water Temp Dewpoint Dewpoint Depression Visibility Wind Speed Wind Dir Waves Ship Positions

Senior

Last reported at 2017-Nov-10 17:22 UTC. Time now 2017-Nov-20 13:46 UTC.
Position N 23°39' W 015°57'.
Warning: this ship's position is 9 days out of date.

Length 62 m; draft 6.4 m.

Type: Fishing. MMSI: 242185100.

Date/timePositionNaut miles runAvg speedWind from/ knotsBaromVisibWave heightAir tempDewpointWater temp
2017-Nov-10 17:22N 23°39' W 015°57'0 0.4
2017-Nov-10 17:01N 23°40' W 015°57'0 0.2
2017-Nov-10 16:30N 23°40' W 015°56'0 0.0
2017-Nov-10 15:55N 23°40' W 015°56'0 0.0
2017-Nov-10 15:30N 23°40' W 015°56'0 0.0
2017-Nov-10 14:59N 23°40' W 015°56'0 0.0
2017-Nov-10 14:29N 23°40' W 015°56'2 2.9
2017-Nov-10 13:45N 23°38' W 015°57'3 7.9
2017-Nov-10 13:25N 23°36' W 015°60'4 8.7
2017-Nov-10 12:59N 23°39' W 016°03'4 7.6
2017-Nov-10 12:27N 23°43' W 016°03'  
Track history (hours):
 
Tides and Currents Weather Stations Pressure Air Temp Water Temp Dewpoint Dewpoint Depression Visibility Wind Speed Wind Dir Waves Ship Positions

Senior

Last reported at 2017-Nov-10 17:22 UTC. Time now 2017-Nov-20 13:46 UTC.
Position N 23°39' W 015°57'.
Warning: this ship's position is 9 days out of date.

Length 62 m; draft 6.4 m.

Type: Fishing. MMSI: 242185100.

Date/timePositionNaut miles runAvg speedWind from/ knotsBaromVisibWave heightAir tempDewpointWater temp
2017-Nov-10 17:22N 23°39' W 015°57'0 0.4
2017-Nov-10 17:01N 23°40' W 015°57'0 0.2
2017-Nov-10 16:30N 23°40' W 015°56'0 0.0
2017-Nov-10 15:55N 23°40' W 015°56'0 0.0
2017-Nov-10 15:30N 23°40' W 015°56'0 0.0
2017-Nov-10 14:59N 23°40' W 015°56'0 0.0
2017-Nov-10 14:29N 23°40' W 015°56'2 2.9
2017-Nov-10 13:45N 23°38' W 015°57'3 7.9
2017-Nov-10 13:25N 23°36' W 015°60'4 8.7
2017-Nov-10 12:59N 23°39' W 016°03'4 7.6
2017-Nov-10 12:27N 23°43' W 016°03'  

Dump ship's entire track history